sensor_id;sensor_type;location;lat;lon;timestamp;pressure;altitude;pressure_sealevel;temperature;humidity
34742;BME280;20968;42.696;23.360;2024-01-07T00:01:24;93747.19;;;7.99;78.85
34742;BME280;20968;42.696;23.360;2024-01-07T00:03:51;93748.91;;;7.86;79.95
34742;BME280;20968;42.696;23.360;2024-01-07T00:06:16;93752.13;;;7.90;79.27
34742;BME280;20968;42.696;23.360;2024-01-07T00:08:42;93744.69;;;7.90;79.74
34742;BME280;20968;42.696;23.360;2024-01-07T00:11:07;93732.47;;;7.91;79.60
34742;BME280;20968;42.696;23.360;2024-01-07T00:13:33;93738.44;;;7.90;79.47
34742;BME280;20968;42.696;23.360;2024-01-07T00:15:58;93731.50;;;7.89;78.81
34742;BME280;20968;42.696;23.360;2024-01-07T00:18:23;93730.22;;;7.79;78.74
34742;BME280;20968;42.696;23.360;2024-01-07T00:20:50;93731.97;;;7.82;78.97
34742;BME280;20968;42.696;23.360;2024-01-07T00:23:15;93732.44;;;7.75;80.23
34742;BME280;20968;42.696;23.360;2024-01-07T00:25:41;93724.22;;;7.75;79.36
34742;BME280;20968;42.696;23.360;2024-01-07T00:28:06;93716.53;;;7.79;79.99
34742;BME280;20968;42.696;23.360;2024-01-07T00:30:31;93710.00;;;7.66;80.47
34742;BME280;20968;42.696;23.360;2024-01-07T00:32:57;93713.47;;;7.50;80.37
34742;BME280;20968;42.696;23.360;2024-01-07T00:35:22;93707.47;;;7.40;81.06
34742;BME280;20968;42.696;23.360;2024-01-07T00:37:47;93708.41;;;7.26;82.53
34742;BME280;20968;42.696;23.360;2024-01-07T00:40:13;93686.72;;;7.17;81.63
34742;BME280;20968;42.696;23.360;2024-01-07T00:42:38;93673.34;;;7.25;82.50
34742;BME280;20968;42.696;23.360;2024-01-07T00:45:04;93678.78;;;7.19;82.69
34742;BME280;20968;42.696;23.360;2024-01-07T00:47:29;93679.81;;;7.33;81.79
34742;BME280;20968;42.696;23.360;2024-01-07T00:49:55;93671.88;;;7.40;82.20
34742;BME280;20968;42.696;23.360;2024-01-07T00:52:20;93656.94;;;7.41;82.24
34742;BME280;20968;42.696;23.360;2024-01-07T00:54:46;93643.75;;;7.45;81.43
34742;BME280;20968;42.696;23.360;2024-01-07T00:57:12;93642.78;;;7.48;81.64
34742;BME280;20968;42.696;23.360;2024-01-07T00:59:38;93639.28;;;7.42;81.86
34742;BME280;20968;42.696;23.360;2024-01-07T01:02:03;93639.75;;;7.41;81.33
34742;BME280;20968;42.696;23.360;2024-01-07T01:04:28;93639.06;;;7.51;82.26
34742;BME280;20968;42.696;23.360;2024-01-07T01:06:54;93647.25;;;7.46;82.25
34742;BME280;20968;42.696;23.360;2024-01-07T01:09:19;93642.03;;;7.42;81.83
34742;BME280;20968;42.696;23.360;2024-01-07T01:11:45;93643.03;;;7.50;82.11
34742;BME280;20968;42.696;23.360;2024-01-07T01:14:10;93626.84;;;7.47;81.82
34742;BME280;20968;42.696;23.360;2024-01-07T01:16:35;93628.09;;;7.46;82.47
34742;BME280;20968;42.696;23.360;2024-01-07T01:19:01;93615.88;;;7.41;82.25
34742;BME280;20968;42.696;23.360;2024-01-07T01:21:26;93606.91;;;7.30;82.61
34742;BME280;20968;42.696;23.360;2024-01-07T01:23:52;93599.94;;;7.34;83.27
34742;BME280;20968;42.696;23.360;2024-01-07T01:26:17;93598.44;;;7.33;82.95
34742;BME280;20968;42.696;23.360;2024-01-07T01:28:42;93577.53;;;7.36;83.52
34742;BME280;20968;42.696;23.360;2024-01-07T01:31:08;93576.06;;;7.40;83.99
34742;BME280;20968;42.696;23.360;2024-01-07T01:33:33;93572.56;;;7.51;83.85
34742;BME280;20968;42.696;23.360;2024-01-07T01:35:58;93567.84;;;7.51;83.52
34742;BME280;20968;42.696;23.360;2024-01-07T01:38:24;93563.84;;;7.58;83.77
34742;BME280;20968;42.696;23.360;2024-01-07T01:40:53;93566.59;;;7.63;83.40
34742;BME280;20968;42.696;23.360;2024-01-07T01:43:28;93553.38;;;7.67;82.97
34742;BME280;20968;42.696;23.360;2024-01-07T01:45:55;93538.44;;;7.73;83.49
34742;BME280;20968;42.696;23.360;2024-01-07T01:48:26;93537.47;;;7.82;82.67
34742;BME280;20968;42.696;23.360;2024-01-07T01:50:54;93535.19;;;7.86;81.33
34742;BME280;20968;42.696;23.360;2024-01-07T01:53:23;93521.50;;;7.80;81.71
34742;BME280;20968;42.696;23.360;2024-01-07T01:55:49;93512.56;;;7.80;81.69
34742;BME280;20968;42.696;23.360;2024-01-07T01:58:16;93501.59;;;7.80;82.27
34742;BME280;20968;42.696;23.360;2024-01-07T02:00:44;93511.53;;;7.83;81.21
34742;BME280;20968;42.696;23.360;2024-01-07T02:03:09;93515.78;;;7.89;82.16
34742;BME280;20968;42.696;23.360;2024-01-07T02:05:34;93512.53;;;7.91;81.88
34742;BME280;20968;42.696;23.360;2024-01-07T02:08:00;93519.75;;;7.94;81.01
34742;BME280;20968;42.696;23.360;2024-01-07T02:10:26;93521.00;;;7.87;82.03
34742;BME280;20968;42.696;23.360;2024-01-07T02:12:52;93526.00;;;7.78;80.97
34742;BME280;20968;42.696;23.360;2024-01-07T02:15:17;93535.72;;;7.68;81.99
34742;BME280;20968;42.696;23.360;2024-01-07T02:17:43;93517.06;;;7.72;81.92
34742;BME280;20968;42.696;23.360;2024-01-07T02:20:09;93494.88;;;7.75;81.15
34742;BME280;20968;42.696;23.360;2024-01-07T02:22:34;93486.41;;;7.84;81.55
34742;BME280;20968;42.696;23.360;2024-01-07T02:24:59;93464.22;;;7.88;81.44
34742;BME280;20968;42.696;23.360;2024-01-07T02:27:25;93459.47;;;7.88;81.83
34742;BME280;20968;42.696;23.360;2024-01-07T02:29:50;93443.53;;;7.87;81.27
34742;BME280;20968;42.696;23.360;2024-01-07T02:32:16;93425.19;;;7.66;81.70
34742;BME280;20968;42.696;23.360;2024-01-07T02:34:41;93425.94;;;7.55;81.48
34742;BME280;20968;42.696;23.360;2024-01-07T02:37:06;93417.94;;;7.68;82.43
34742;BME280;20968;42.696;23.360;2024-01-07T02:39:32;93426.13;;;7.79;81.78
34742;BME280;20968;42.696;23.360;2024-01-07T02:41:58;93427.88;;;7.82;80.46
34742;BME280;20968;42.696;23.360;2024-01-07T02:44:23;93428.16;;;7.73;81.00
34742;BME280;20968;42.696;23.360;2024-01-07T02:46:49;93425.88;;;7.77;81.31
34742;BME280;20968;42.696;23.360;2024-01-07T02:49:14;93438.41;;;7.62;81.41
34742;BME280;20968;42.696;23.360;2024-01-07T02:51:39;93436.13;;;7.60;82.32
34742;BME280;20968;42.696;23.360;2024-01-07T02:54:05;93439.88;;;7.63;82.44
34742;BME280;20968;42.696;23.360;2024-01-07T02:56:30;93439.84;;;7.68;82.54
34742;BME280;20968;42.696;23.360;2024-01-07T02:58:56;93432.59;;;7.76;81.61
34742;BME280;20968;42.696;23.360;2024-01-07T03:01:22;93435.09;;;7.79;81.99
34742;BME280;20968;42.696;23.360;2024-01-07T03:03:50;93447.59;;;7.70;82.10
34742;BME280;20968;42.696;23.360;2024-01-07T03:06:16;93448.06;;;7.79;82.26
34742;BME280;20968;42.696;23.360;2024-01-07T03:08:42;93452.75;;;7.84;82.38
34742;BME280;20968;42.696;23.360;2024-01-07T03:11:08;93449.28;;;7.89;81.77
34742;BME280;20968;42.696;23.360;2024-01-07T03:13:33;93449.50;;;7.91;82.35
34742;BME280;20968;42.696;23.360;2024-01-07T03:15:59;93452.22;;;7.96;82.22
34742;BME280;20968;42.696;23.360;2024-01-07T03:18:24;93457.97;;;7.98;80.92
34742;BME280;20968;42.696;23.360;2024-01-07T03:20:50;93455.47;;;8.00;80.59
34742;BME280;20968;42.696;23.360;2024-01-07T03:23:15;93467.69;;;7.99;80.47
34742;BME280;20968;42.696;23.360;2024-01-07T03:25:41;93472.16;;;7.97;80.78
34742;BME280;20968;42.696;23.360;2024-01-07T03:28:06;93470.63;;;8.01;81.03
34742;BME280;20968;42.696;23.360;2024-01-07T03:30:32;93476.88;;;7.96;81.91
34742;BME280;20968;42.696;23.360;2024-01-07T03:32:57;93474.94;;;7.80;82.39
34742;BME280;20968;42.696;23.360;2024-01-07T03:35:22;93467.22;;;7.73;83.59
34742;BME280;20968;42.696;23.360;2024-01-07T03:37:49;93459.03;;;7.73;84.50
34742;BME280;20968;42.696;23.360;2024-01-07T03:40:14;93459.25;;;7.81;84.68
34742;BME280;20968;42.696;23.360;2024-01-07T03:42:40;93453.00;;;7.86;85.14
34742;BME280;20968;42.696;23.360;2024-01-07T03:45:06;93460.97;;;7.95;85.03
34742;BME280;20968;42.696;23.360;2024-01-07T03:47:31;93459.94;;;7.98;84.45
34742;BME280;20968;42.696;23.360;2024-01-07T03:49:57;93453.47;;;7.95;86.16
34742;BME280;20968;42.696;23.360;2024-01-07T03:52:22;93447.00;;;7.98;85.61
34742;BME280;20968;42.696;23.360;2024-01-07T03:54:48;93445.75;;;7.94;86.01
34742;BME280;20968;42.696;23.360;2024-01-07T03:57:13;93442.81;;;7.81;86.80
34742;BME280;20968;42.696;23.360;2024-01-07T03:59:38;93446.81;;;7.80;87.31
34742;BME280;20968;42.696;23.360;2024-01-07T04:02:04;93448.00;;;7.90;87.23
34742;BME280;20968;42.696;23.360;2024-01-07T04:04:29;93435.25;;;8.03;86.67
34742;BME280;20968;42.696;23.360;2024-01-07T04:06:55;93432.97;;;8.18;86.64
34742;BME280;20968;42.696;23.360;2024-01-07T04:09:20;93429.69;;;8.31;86.79
34742;BME280;20968;42.696;23.360;2024-01-07T04:11:45;93426.00;;;8.23;87.38
34742;BME280;20968;42.696;23.360;2024-01-07T04:14:14;93414.50;;;8.30;87.15
34742;BME280;20968;42.696;23.360;2024-01-07T04:16:39;93413.19;;;8.42;88.00
34742;BME280;20968;42.696;23.360;2024-01-07T04:19:05;93413.88;;;8.53;87.52
34742;BME280;20968;42.696;23.360;2024-01-07T04:21:31;93413.53;;;8.62;87.18
34742;BME280;20968;42.696;23.360;2024-01-07T04:23:56;93420.78;;;8.59;87.43
34742;BME280;20968;42.696;23.360;2024-01-07T04:26:22;93413.06;;;8.63;88.50
34742;BME280;20968;42.696;23.360;2024-01-07T04:28:47;93399.34;;;8.63;87.93
34742;BME280;20968;42.696;23.360;2024-01-07T04:31:12;93396.34;;;8.61;87.94
34742;BME280;20968;42.696;23.360;2024-01-07T04:33:38;93392.78;;;8.72;88.81
34742;BME280;20968;42.696;23.360;2024-01-07T04:36:03;93389.72;;;8.81;87.75
34742;BME280;20968;42.696;23.360;2024-01-07T04:38:31;93394.94;;;8.84;88.13
34742;BME280;20968;42.696;23.360;2024-01-07T04:40:57;93395.19;;;8.86;88.17
34742;BME280;20968;42.696;23.360;2024-01-07T04:43:22;93390.09;;;8.96;87.40
34742;BME280;20968;42.696;23.360;2024-01-07T04:45:48;93389.66;;;8.92;87.82
34742;BME280;20968;42.696;23.360;2024-01-07T04:48:13;93384.88;;;8.63;87.92
34742;BME280;20968;42.696;23.360;2024-01-07T04:50:40;93375.53;;;8.42;89.22
34742;BME280;20968;42.696;23.360;2024-01-07T04:53:07;93375.69;;;8.15;89.33
34742;BME280;20968;42.696;23.360;2024-01-07T04:55:33;93393.53;;;8.32;90.37
34742;BME280;20968;42.696;23.360;2024-01-07T04:57:58;93403.47;;;8.41;88.23
34742;BME280;20968;42.696;23.360;2024-01-07T05:00:24;93411.72;;;8.35;88.42
34742;BME280;20968;42.696;23.360;2024-01-07T05:02:49;93410.25;;;8.29;87.63
34742;BME280;20968;42.696;23.360;2024-01-07T05:05:14;93409.78;;;8.25;88.41
34742;BME280;20968;42.696;23.360;2024-01-07T05:07:40;93413.78;;;8.18;88.39
34742;BME280;20968;42.696;23.360;2024-01-07T05:10:05;93407.13;;;8.03;88.80
34742;BME280;20968;42.696;23.360;2024-01-07T05:12:31;93383.25;;;7.92;90.21
34742;BME280;20968;42.696;23.360;2024-01-07T05:14:57;93382.47;;;7.97;90.83
34742;BME280;20968;42.696;23.360;2024-01-07T05:17:22;93380.00;;;7.94;90.05
34742;BME280;20968;42.696;23.360;2024-01-07T05:19:47;93366.06;;;7.92;91.10
34742;BME280;20968;42.696;23.360;2024-01-07T05:22:13;93355.84;;;7.92;90.78
34742;BME280;20968;42.696;23.360;2024-01-07T05:24:38;93372.50;;;8.00;90.20
34742;BME280;20968;42.696;23.360;2024-01-07T05:27:04;93397.69;;;7.98;90.08
34742;BME280;20968;42.696;23.360;2024-01-07T05:29:31;93391.97;;;7.91;90.17
34742;BME280;20968;42.696;23.360;2024-01-07T05:31:58;93392.47;;;7.95;91.29
34742;BME280;20968;42.696;23.360;2024-01-07T05:34:25;93377.72;;;7.98;90.88
34742;BME280;20968;42.696;23.360;2024-01-07T05:36:51;93384.97;;;7.95;91.58
34742;BME280;20968;42.696;23.360;2024-01-07T05:39:16;93377.50;;;7.96;91.50
34742;BME280;20968;42.696;23.360;2024-01-07T05:41:42;93376.47;;;7.99;92.03
34742;BME280;20968;42.696;23.360;2024-01-07T05:44:07;93376.19;;;8.13;91.54
34742;BME280;20968;42.696;23.360;2024-01-07T05:46:33;93367.50;;;8.04;90.67
34742;BME280;20968;42.696;23.360;2024-01-07T05:48:59;93368.03;;;7.97;91.62
34742;BME280;20968;42.696;23.360;2024-01-07T05:51:24;93376.97;;;8.03;91.27
34742;BME280;20968;42.696;23.360;2024-01-07T05:53:49;93378.66;;;8.11;91.10
34742;BME280;20968;42.696;23.360;2024-01-07T05:56:15;93365.69;;;8.17;91.10
34742;BME280;20968;42.696;23.360;2024-01-07T05:58:40;93371.69;;;8.16;91.13
34742;BME280;20968;42.696;23.360;2024-01-07T06:01:07;93372.91;;;8.26;90.51
34742;BME280;20968;42.696;23.360;2024-01-07T06:03:33;93394.03;;;8.31;90.59
34742;BME280;20968;42.696;23.360;2024-01-07T06:05:59;93399.81;;;8.22;90.60
34742;BME280;20968;42.696;23.360;2024-01-07T06:08:25;93396.59;;;8.23;90.66
34742;BME280;20968;42.696;23.360;2024-01-07T06:10:51;93381.88;;;8.21;90.24
34742;BME280;20968;42.696;23.360;2024-01-07T06:13:16;93378.34;;;8.31;90.72
34742;BME280;20968;42.696;23.360;2024-01-07T06:15:42;93367.59;;;8.33;90.81
34742;BME280;20968;42.696;23.360;2024-01-07T06:18:07;93370.88;;;8.26;90.24
34742;BME280;20968;42.696;23.360;2024-01-07T06:20:32;93373.38;;;8.24;90.47
34742;BME280;20968;42.696;23.360;2024-01-07T06:22:58;93380.34;;;8.31;91.28
34742;BME280;20968;42.696;23.360;2024-01-07T06:25:23;93387.88;;;8.94;94.55
34742;BME280;20968;42.696;23.360;2024-01-07T06:27:51;93381.16;;;10.51;99.70
34742;BME280;20968;42.696;23.360;2024-01-07T06:30:17;93376.81;;;10.92;93.05
34742;BME280;20968;42.696;23.360;2024-01-07T06:32:44;93375.41;;;11.17;87.83
34742;BME280;20968;42.696;23.360;2024-01-07T06:35:10;93381.28;;;11.40;84.52
34742;BME280;20968;42.696;23.360;2024-01-07T06:37:36;93384.53;;;11.82;83.43
34742;BME280;20968;42.696;23.360;2024-01-07T06:40:01;93403.63;;;12.19;79.55
34742;BME280;20968;42.696;23.360;2024-01-07T06:42:27;93405.13;;;12.07;78.42
34742;BME280;20968;42.696;23.360;2024-01-07T06:44:52;93391.53;;;12.35;76.80
34742;BME280;20968;42.696;23.360;2024-01-07T06:47:18;93403.75;;;11.88;74.54
34742;BME280;20968;42.696;23.360;2024-01-07T06:49:43;93417.81;;;11.59;75.68
34742;BME280;20968;42.696;23.360;2024-01-07T06:52:09;93434.25;;;11.33;74.65
34742;BME280;20968;42.696;23.360;2024-01-07T06:54:34;93430.59;;;10.93;75.60
34742;BME280;20968;42.696;23.360;2024-01-07T06:57:00;93429.13;;;10.74;77.07
34742;BME280;20968;42.696;23.360;2024-01-07T06:59:25;93422.38;;;10.38;77.65
34742;BME280;20968;42.696;23.360;2024-01-07T07:01:50;93407.06;;;10.24;78.43
34742;BME280;20968;42.696;23.360;2024-01-07T07:04:16;93401.22;;;9.86;80.10
34742;BME280;20968;42.696;23.360;2024-01-07T07:06:41;93412.31;;;9.51;81.70
34742;BME280;20968;42.696;23.360;2024-01-07T07:09:07;93411.94;;;9.41;82.96
34742;BME280;20968;42.696;23.360;2024-01-07T07:11:32;93413.66;;;9.44;82.36
34742;BME280;20968;42.696;23.360;2024-01-07T07:13:58;93407.88;;;9.48;82.20
34742;BME280;20968;42.696;23.360;2024-01-07T07:16:23;93407.06;;;9.53;82.25
34742;BME280;20968;42.696;23.360;2024-01-07T07:18:48;93405.13;;;9.48;82.53
34742;BME280;20968;42.696;23.360;2024-01-07T07:21:14;93390.41;;;9.45;82.81
34742;BME280;20968;42.696;23.360;2024-01-07T07:23:39;93371.47;;;9.42;83.25
34742;BME280;20968;42.696;23.360;2024-01-07T07:26:05;93380.06;;;9.33;84.97
34742;BME280;20968;42.696;23.360;2024-01-07T07:28:32;93391.72;;;9.39;84.77
34742;BME280;20968;42.696;23.360;2024-01-07T07:30:57;93396.75;;;9.35;84.27
34742;BME280;20968;42.696;23.360;2024-01-07T07:33:22;93394.06;;;9.29;85.36
34742;BME280;20968;42.696;23.360;2024-01-07T07:35:48;93391.78;;;9.33;85.70
34742;BME280;20968;42.696;23.360;2024-01-07T07:38:13;93388.97;;;9.39;85.50
34742;BME280;20968;42.696;23.360;2024-01-07T07:40:39;93388.97;;;9.39;85.32
34742;BME280;20968;42.696;23.360;2024-01-07T07:43:05;93400.31;;;9.54;85.86
34742;BME280;20968;42.696;23.360;2024-01-07T07:45:30;93406.06;;;9.56;84.96
34742;BME280;20968;42.696;23.360;2024-01-07T07:47:56;93409.28;;;9.54;85.11
34742;BME280;20968;42.696;23.360;2024-01-07T07:50:21;93403.75;;;9.60;85.45
34742;BME280;20968;42.696;23.360;2024-01-07T07:52:47;93397.81;;;9.56;86.33
34742;BME280;20968;42.696;23.360;2024-01-07T07:55:12;93382.41;;;9.47;86.63
34742;BME280;20968;42.696;23.360;2024-01-07T07:57:38;93385.72;;;9.40;88.14
34742;BME280;20968;42.696;23.360;2024-01-07T08:00:05;93388.56;;;9.53;87.93
34742;BME280;20968;42.696;23.360;2024-01-07T08:02:31;93390.63;;;9.71;87.70
34742;BME280;20968;42.696;23.360;2024-01-07T08:04:56;93384.78;;;9.80;86.86
34742;BME280;20968;42.696;23.360;2024-01-07T08:07:21;93382.72;;;9.86;87.00
34742;BME280;20968;42.696;23.360;2024-01-07T08:09:47;93386.69;;;9.91;86.55
34742;BME280;20968;42.696;23.360;2024-01-07T08:12:12;93385.84;;;9.96;86.23
34742;BME280;20968;42.696;23.360;2024-01-07T08:14:38;93383.63;;;9.94;86.26
34742;BME280;20968;42.696;23.360;2024-01-07T08:17:07;93392.41;;;9.93;86.20
34742;BME280;20968;42.696;23.360;2024-01-07T08:19:32;93383.31;;;9.79;85.93
34742;BME280;20968;42.696;23.360;2024-01-07T08:21:58;93382.97;;;9.88;86.05
34742;BME280;20968;42.696;23.360;2024-01-07T08:24:23;93375.75;;;9.61;87.16
34742;BME280;20968;42.696;23.360;2024-01-07T08:26:48;93386.25;;;9.63;87.54
34742;BME280;20968;42.696;23.360;2024-01-07T08:29:14;93386.41;;;9.70;86.87
34742;BME280;20968;42.696;23.360;2024-01-07T08:31:40;93390.25;;;9.86;87.07
34742;BME280;20968;42.696;23.360;2024-01-07T08:34:05;93391.16;;;9.94;86.92
34742;BME280;20968;42.696;23.360;2024-01-07T08:36:30;93389.84;;;10.00;87.06
34742;BME280;20968;42.696;23.360;2024-01-07T08:38:56;93377.81;;;10.03;86.92
34742;BME280;20968;42.696;23.360;2024-01-07T08:41:21;93378.84;;;10.00;86.77
34742;BME280;20968;42.696;23.360;2024-01-07T08:43:46;93381.75;;;10.07;86.35
34742;BME280;20968;42.696;23.360;2024-01-07T08:46:12;93378.47;;;10.09;87.05
34742;BME280;20968;42.696;23.360;2024-01-07T08:48:39;93366.94;;;10.10;87.15
34742;BME280;20968;42.696;23.360;2024-01-07T08:51:05;93381.00;;;10.25;87.18
34742;BME280;20968;42.696;23.360;2024-01-07T08:53:31;93383.75;;;10.25;87.04
34742;BME280;20968;42.696;23.360;2024-01-07T08:55:56;93369.63;;;10.34;85.86
34742;BME280;20968;42.696;23.360;2024-01-07T08:58:22;93369.72;;;10.29;86.45
34742;BME280;20968;42.696;23.360;2024-01-07T09:00:47;93367.78;;;10.42;85.60
34742;BME280;20968;42.696;23.360;2024-01-07T09:03:13;93372.63;;;10.55;84.86
34742;BME280;20968;42.696;23.360;2024-01-07T09:05:38;93371.88;;;10.54;84.99
34742;BME280;20968;42.696;23.360;2024-01-07T09:08:05;93374.19;;;10.50;85.17
34742;BME280;20968;42.696;23.360;2024-01-07T09:10:31;93381.47;;;10.66;84.48
34742;BME280;20968;42.696;23.360;2024-01-07T09:12:57;93377.13;;;10.71;84.12
34742;BME280;20968;42.696;23.360;2024-01-07T09:15:22;93373.19;;;10.66;83.85
34742;BME280;20968;42.696;23.360;2024-01-07T09:17:48;93378.03;;;10.60;83.92
34742;BME280;20968;42.696;23.360;2024-01-07T09:20:13;93371.47;;;10.63;83.84
34742;BME280;20968;42.696;23.360;2024-01-07T09:22:39;93376.97;;;10.63;84.25
34742;BME280;20968;42.696;23.360;2024-01-07T09:25:06;93377.22;;;10.65;83.69
34742;BME280;20968;42.696;23.360;2024-01-07T09:27:32;93370.41;;;10.84;83.01
34742;BME280;20968;42.696;23.360;2024-01-07T09:29:58;93379.78;;;10.94;82.09
34742;BME280;20968;42.696;23.360;2024-01-07T09:32:24;93384.38;;;11.05;82.15
34742;BME280;20968;42.696;23.360;2024-01-07T09:34:49;93375.50;;;11.25;81.67
34742;BME280;20968;42.696;23.360;2024-01-07T09:37:15;93368.16;;;11.46;80.64
34742;BME280;20968;42.696;23.360;2024-01-07T09:39:41;93372.00;;;11.56;81.50
34742;BME280;20968;42.696;23.360;2024-01-07T09:42:13;93367.78;;;11.67;79.97
34742;BME280;20968;42.696;23.360;2024-01-07T09:44:39;93361.41;;;11.60;79.68
34742;BME280;20968;42.696;23.360;2024-01-07T09:47:08;93360.53;;;11.39;80.38
34742;BME280;20968;42.696;23.360;2024-01-07T09:49:35;93355.78;;;11.52;80.37
34742;BME280;20968;42.696;23.360;2024-01-07T09:52:01;93364.16;;;11.72;79.71
34742;BME280;20968;42.696;23.360;2024-01-07T09:54:29;93371.81;;;11.92;76.43
34742;BME280;20968;42.696;23.360;2024-01-07T09:57:02;93371.19;;;11.99;77.33
34742;BME280;20968;42.696;23.360;2024-01-07T09:59:30;93368.72;;;12.09;75.27
34742;BME280;20968;42.696;23.360;2024-01-07T10:01:56;93364.16;;;12.11;75.60
34742;BME280;20968;42.696;23.360;2024-01-07T10:04:23;93372.56;;;12.19;75.61
34742;BME280;20968;42.696;23.360;2024-01-07T10:06:48;93364.16;;;12.24;76.01
34742;BME280;20968;42.696;23.360;2024-01-07T10:09:15;93359.06;;;12.15;74.68
34742;BME280;20968;42.696;23.360;2024-01-07T10:11:40;93359.56;;;12.27;74.15
34742;BME280;20968;42.696;23.360;2024-01-07T10:14:06;93367.41;;;12.36;73.13
34742;BME280;20968;42.696;23.360;2024-01-07T10:16:32;93347.06;;;12.26;72.58
34742;BME280;20968;42.696;23.360;2024-01-07T10:18:58;93349.81;;;12.26;73.12
34742;BME280;20968;42.696;23.360;2024-01-07T10:21:23;93350.22;;;12.30;72.78
34742;BME280;20968;42.696;23.360;2024-01-07T10:23:49;93346.56;;;12.14;75.13
34742;BME280;20968;42.696;23.360;2024-01-07T10:26:15;93338.09;;;11.99;74.08
34742;BME280;20968;42.696;23.360;2024-01-07T10:28:41;93325.13;;;12.07;72.89
34742;BME280;20968;42.696;23.360;2024-01-07T10:31:08;93324.28;;;11.86;73.06
34742;BME280;20968;42.696;23.360;2024-01-07T10:33:34;93329.19;;;11.80;73.34
34742;BME280;20968;42.696;23.360;2024-01-07T10:36:05;93328.97;;;11.78;73.08
34742;BME280;20968;42.696;23.360;2024-01-07T10:38:32;93316.56;;;11.85;72.44
34742;BME280;20968;42.696;23.360;2024-01-07T10:40:59;93303.06;;;11.94;73.42
34742;BME280;20968;42.696;23.360;2024-01-07T10:43:29;93292.03;;;11.94;73.36
34742;BME280;20968;42.696;23.360;2024-01-07T10:45:55;93296.28;;;11.95;74.98
34742;BME280;20968;42.696;23.360;2024-01-07T10:48:21;93303.09;;;11.81;73.31
34742;BME280;20968;42.696;23.360;2024-01-07T10:50:53;93304.78;;;11.84;75.07
34742;BME280;20968;42.696;23.360;2024-01-07T10:53:21;93304.47;;;11.88;73.86
34742;BME280;20968;42.696;23.360;2024-01-07T10:55:54;93306.97;;;12.12;74.00
34742;BME280;20968;42.696;23.360;2024-01-07T10:58:25;93293.88;;;12.25;73.31
34742;BME280;20968;42.696;23.360;2024-01-07T11:00:51;93298.16;;;12.13;72.48
34742;BME280;20968;42.696;23.360;2024-01-07T11:03:30;93301.06;;;11.95;71.91
34742;BME280;20968;42.696;23.360;2024-01-07T11:06:05;93305.06;;;12.07;72.38
34742;BME280;20968;42.696;23.360;2024-01-07T11:09:02;93298.28;;;12.08;71.78
34742;BME280;20968;42.696;23.360;2024-01-07T11:11:36;93295.09;;;12.17;73.06
34742;BME280;20968;42.696;23.360;2024-01-07T11:14:03;93294.22;;;12.22;73.10
34742;BME280;20968;42.696;23.360;2024-01-07T11:16:47;93294.38;;;12.37;72.90
34742;BME280;20968;42.696;23.360;2024-01-07T11:19:15;93296.84;;;12.60;74.28
34742;BME280;20968;42.696;23.360;2024-01-07T11:21:45;93304.28;;;12.86;72.25
34742;BME280;20968;42.696;23.360;2024-01-07T11:24:37;93308.28;;;12.98;71.02
34742;BME280;20968;42.696;23.360;2024-01-07T11:27:03;93301.28;;;12.97;71.08
34742;BME280;20968;42.696;23.360;2024-01-07T11:29:31;93303.72;;;13.21;70.51
34742;BME280;20968;42.696;23.360;2024-01-07T11:31:56;93300.25;;;13.55;70.45
34742;BME280;20968;42.696;23.360;2024-01-07T11:34:41;93289.00;;;13.53;69.34
34742;BME280;20968;42.696;23.360;2024-01-07T11:37:13;93292.56;;;13.61;69.70
34742;BME280;20968;42.696;23.360;2024-01-07T11:39:44;93299.88;;;13.51;68.19
34742;BME280;20968;42.696;23.360;2024-01-07T11:42:10;93290.66;;;13.84;76.41
34742;BME280;20968;42.696;23.360;2024-01-07T11:44:37;93297.91;;;14.22;71.34
34742;BME280;20968;42.696;23.360;2024-01-07T11:47:06;93298.78;;;14.60;67.24
34742;BME280;20968;42.696;23.360;2024-01-07T11:49:32;93297.50;;;14.61;63.28
34742;BME280;20968;42.696;23.360;2024-01-07T11:51:58;93307.22;;;14.47;60.59
34742;BME280;20968;42.696;23.360;2024-01-07T11:54:24;93314.53;;;14.30;61.17
34742;BME280;20968;42.696;23.360;2024-01-07T11:56:49;93312.81;;;14.12;61.47
34742;BME280;20968;42.696;23.360;2024-01-07T11:59:15;93305.78;;;13.83;61.48
34742;BME280;20968;42.696;23.360;2024-01-07T12:01:40;93306.19;;;13.59;61.12
34742;BME280;20968;42.696;23.360;2024-01-07T12:04:05;93301.75;;;13.56;60.98
34742;BME280;20968;42.696;23.360;2024-01-07T12:06:33;93301.09;;;13.43;61.90
34742;BME280;20968;42.696;23.360;2024-01-07T12:08:58;93291.13;;;13.40;62.27
34742;BME280;20968;42.696;23.360;2024-01-07T12:11:23;93290.53;;;13.34;62.72
34742;BME280;20968;42.696;23.360;2024-01-07T12:13:49;93299.97;;;13.38;62.54
34742;BME280;20968;42.696;23.360;2024-01-07T12:16:15;93305.63;;;13.33;63.17
34742;BME280;20968;42.696;23.360;2024-01-07T12:18:41;93302.25;;;13.27;62.42
34742;BME280;20968;42.696;23.360;2024-01-07T12:21:07;93301.22;;;13.10;62.67
34742;BME280;20968;42.696;23.360;2024-01-07T12:23:36;93303.09;;;13.15;62.81
34742;BME280;20968;42.696;23.360;2024-01-07T12:26:11;93301.22;;;13.10;62.61
34742;BME280;20968;42.696;23.360;2024-01-07T12:28:37;93312.72;;;13.01;63.99
34742;BME280;20968;42.696;23.360;2024-01-07T12:31:06;93302.63;;;13.03;64.55
34742;BME280;20968;42.696;23.360;2024-01-07T12:33:33;93314.22;;;13.02;64.54
34742;BME280;20968;42.696;23.360;2024-01-07T12:35:59;93314.50;;;12.91;64.86
34742;BME280;20968;42.696;23.360;2024-01-07T12:38:26;93312.91;;;12.82;64.05
34742;BME280;20968;42.696;23.360;2024-01-07T12:40:55;93311.22;;;12.79;65.68
34742;BME280;20968;42.696;23.360;2024-01-07T12:43:21;93314.72;;;12.80;64.56
34742;BME280;20968;42.696;23.360;2024-01-07T12:45:49;93313.66;;;12.83;65.92
34742;BME280;20968;42.696;23.360;2024-01-07T12:48:15;93309.19;;;12.80;65.41
34742;BME280;20968;42.696;23.360;2024-01-07T12:50:41;93315.19;;;12.71;65.39